createdAt,value
2022-08-24T00:02:26.632Z,4.83
2022-08-24T00:04:57.118Z,4.83
2022-08-24T00:07:28.601Z,4.30
2022-08-24T00:10:01.537Z,4.75
2022-08-24T00:12:32.524Z,4.60
2022-08-24T00:15:03.249Z,4.55
2022-08-24T00:17:34.144Z,4.92
2022-08-24T00:20:05.742Z,4.80
2022-08-24T00:22:36.544Z,4.83
2022-08-24T00:25:07.975Z,4.47
2022-08-24T00:27:39.721Z,4.40
2022-08-24T00:30:14.988Z,5.50
2022-08-24T00:32:47.162Z,4.78
2022-08-24T00:35:19.943Z,4.97
2022-08-24T00:37:52.229Z,5.00
2022-08-24T00:40:33.334Z,4.70
2022-08-24T00:43:05.789Z,5.00
2022-08-24T00:45:45.183Z,4.90
2022-08-24T00:48:18.642Z,5.00
2022-08-24T00:50:53.877Z,5.00
2022-08-24T00:53:39.097Z,5.10
2022-08-24T00:56:15.604Z,5.70
2022-08-24T00:58:56.851Z,5.67
2022-08-24T01:01:24.411Z,5.30
2022-08-24T01:03:57.637Z,5.45
2022-08-24T01:06:28.430Z,5.28
2022-08-24T01:08:58.810Z,5.25
2022-08-24T01:11:33.679Z,5.80
2022-08-24T01:14:06.132Z,5.58
2022-08-24T01:16:54.682Z,5.25
2022-08-24T01:19:39.775Z,5.20
2022-08-24T01:22:21.734Z,5.30
2022-08-24T01:24:52.647Z,5.40
2022-08-24T01:27:27.977Z,5.25
2022-08-24T01:29:58.354Z,5.35
2022-08-24T01:32:29.019Z,5.20
2022-08-24T01:34:59.593Z,5.50
2022-08-24T01:37:32.547Z,5.37
2022-08-24T01:40:06.742Z,5.90
2022-08-24T01:42:38.101Z,5.70
2022-08-24T01:45:09.244Z,5.92
2022-08-24T01:47:40.160Z,5.95
2022-08-24T01:50:10.581Z,6.00
2022-08-24T01:53:03.997Z,6.03
2022-08-24T01:55:19.010Z,6.40
2022-08-24T01:57:49.015Z,6.80
2022-08-24T02:00:20.114Z,6.72
2022-08-24T02:02:50.938Z,6.28
2022-08-24T02:05:22.046Z,6.80
2022-08-24T02:07:54.770Z,6.75
2022-08-24T02:10:28.457Z,7.33
2022-08-24T02:12:59.741Z,7.75
2022-08-24T02:15:37.968Z,8.10
2022-08-24T02:18:15.624Z,8.25
2022-08-24T02:20:45.705Z,8.18
2022-08-24T02:23:17.251Z,8.25
2022-08-24T02:25:48.565Z,8.83
2022-08-24T02:28:20.368Z,9.35
2022-08-24T02:30:51.010Z,10.53
2022-08-24T02:33:23.995Z,10.80
2022-08-24T02:35:55.082Z,10.90
2022-08-24T02:38:25.454Z,12.80
2022-08-24T02:40:57.563Z,12.93
2022-08-24T02:43:28.365Z,13.03
2022-08-24T02:45:58.938Z,11.97
2022-08-24T02:48:30.207Z,12.05
2022-08-24T02:51:00.915Z,12.75
2022-08-24T02:53:31.422Z,13.95
2022-08-24T02:56:01.807Z,12.47
2022-08-24T02:58:33.244Z,14.33
2022-08-24T03:01:03.851Z,13.30
2022-08-24T03:03:35.926Z,13.35
2022-08-24T03:06:08.048Z,12.23
2022-08-24T03:08:38.727Z,12.75
2022-08-24T03:11:09.517Z,12.73
2022-08-24T03:13:40.756Z,13.03
2022-08-24T03:16:11.381Z,12.37
2022-08-24T03:18:42.699Z,12.73
2022-08-24T03:21:14.916Z,13.53
2022-08-24T03:23:45.483Z,12.95
2022-08-24T03:26:16.216Z,13.80
2022-08-24T03:28:47.160Z,13.43
2022-08-24T03:31:19.638Z,12.53
2022-08-24T03:33:50.168Z,12.47
2022-08-24T03:36:20.646Z,12.58
2022-08-24T03:38:51.186Z,11.03
2022-08-24T03:41:21.568Z,12.37
2022-08-24T03:43:52.305Z,12.40
2022-08-24T03:46:27.057Z,12.28
2022-08-24T03:48:59.159Z,11.85
2022-08-24T03:51:30.552Z,11.35
2022-08-24T03:54:02.366Z,11.00
2022-08-24T03:56:33.069Z,11.12
2022-08-24T03:59:04.363Z,11.03
2022-08-24T04:01:35.068Z,12.15
2022-08-24T04:04:06.607Z,11.95
2022-08-24T04:06:37.521Z,11.90
2022-08-24T04:09:08.043Z,12.33
2022-08-24T04:11:41.543Z,12.18
2022-08-24T04:14:26.573Z,11.03
2022-08-24T04:16:45.522Z,11.57
2022-08-24T04:19:17.785Z,11.18
2022-08-24T04:21:48.510Z,11.63
2022-08-24T04:24:19.866Z,10.78
2022-08-24T04:26:50.246Z,10.85
2022-08-24T04:29:21.568Z,10.10
2022-08-24T04:31:51.989Z,10.43
2022-08-24T04:34:22.747Z,9.73
2022-08-24T04:36:53.255Z,10.05
2022-08-24T04:39:23.728Z,8.93
2022-08-24T04:41:55.816Z,9.00
2022-08-24T04:44:26.359Z,8.90
2022-08-24T04:46:56.824Z,8.93
2022-08-24T04:49:27.625Z,9.20
2022-08-24T04:51:58.397Z,8.48
2022-08-24T04:54:28.878Z,8.53
2022-08-24T04:56:59.547Z,8.68
2022-08-24T04:59:30.033Z,8.25
2022-08-24T05:02:00.608Z,8.20
2022-08-24T05:04:33.583Z,9.40
2022-08-24T05:07:04.088Z,8.18
2022-08-24T05:09:34.562Z,8.63
2022-08-24T05:12:09.984Z,8.20
2022-08-24T05:14:40.519Z,8.55
2022-08-24T05:17:12.980Z,7.72
2022-08-24T05:19:43.586Z,6.90
2022-08-24T05:22:14.157Z,6.15
2022-08-24T05:24:44.643Z,6.45
2022-08-24T05:27:16.280Z,5.95
2022-08-24T05:29:48.410Z,5.90
2022-08-24T05:32:19.894Z,5.92
2022-08-24T05:34:50.292Z,6.03
2022-08-24T05:37:20.718Z,6.85
2022-08-24T05:39:51.186Z,5.53
2022-08-24T05:42:22.712Z,6.80
2022-08-24T05:44:53.353Z,7.37
2022-08-24T05:47:26.006Z,7.33
2022-08-24T05:49:56.440Z,8.20
2022-08-24T05:52:27.053Z,8.45
2022-08-24T05:55:00.455Z,8.18
2022-08-24T05:57:33.725Z,8.45
2022-08-24T06:00:08.347Z,8.55
2022-08-24T06:02:39.257Z,9.18
2022-08-24T06:05:12.805Z,8.93
2022-08-24T06:07:43.379Z,8.28
2022-08-24T06:10:35.280Z,8.80
2022-08-24T06:12:46.454Z,8.13
2022-08-24T06:15:17.655Z,8.98
2022-08-24T06:17:48.303Z,8.15
2022-08-24T06:20:18.866Z,8.18
2022-08-24T06:22:49.507Z,8.05
2022-08-24T06:25:38.228Z,8.10
2022-08-24T06:28:08.719Z,7.33
2022-08-24T06:30:39.660Z,7.45
2022-08-24T06:33:10.927Z,7.75
2022-08-24T06:35:46.834Z,7.70
2022-08-24T06:38:14.982Z,8.70
2022-08-24T06:40:47.437Z,9.30
2022-08-24T06:43:19.296Z,9.70
2022-08-24T06:45:51.919Z,10.40
2022-08-24T06:48:23.130Z,11.53
2022-08-24T06:50:55.669Z,13.05
2022-08-24T06:53:27.143Z,12.80
2022-08-24T06:55:59.953Z,12.65
2022-08-24T06:58:30.354Z,13.32
2022-08-24T07:01:10.422Z,12.00
2022-08-24T07:03:41.090Z,13.35
2022-08-24T07:06:12.672Z,13.65
2022-08-24T07:08:44.715Z,13.50
2022-08-24T07:11:18.780Z,12.82
2022-08-24T07:13:50.435Z,11.20
2022-08-24T07:16:22.133Z,11.78
2022-08-24T07:18:52.604Z,11.03
2022-08-24T07:21:24.592Z,10.05
2022-08-24T07:24:04.851Z,10.20
2022-08-24T07:26:37.175Z,9.83
2022-08-24T07:29:47.231Z,10.15
2022-08-24T07:31:57.484Z,10.00
2022-08-24T07:34:29.235Z,10.70
2022-08-24T07:37:00.712Z,9.53
2022-08-24T07:39:31.708Z,10.28
2022-08-24T07:42:12.967Z,10.13
2022-08-24T07:44:36.039Z,9.90
2022-08-24T07:47:27.208Z,10.63
2022-08-24T07:49:40.522Z,9.53
2022-08-24T07:52:11.010Z,9.50
2022-08-24T07:54:41.410Z,9.63
2022-08-24T07:57:11.890Z,9.85
2022-08-24T07:59:42.968Z,9.83
2022-08-24T08:02:14.716Z,9.53
2022-08-24T08:04:45.261Z,9.80
2022-08-24T08:07:19.803Z,9.25
2022-08-24T08:09:50.798Z,9.45
2022-08-24T08:12:21.303Z,10.65
2022-08-24T08:14:51.729Z,9.73
2022-08-24T08:17:22.132Z,9.70
2022-08-24T08:19:52.653Z,9.75
2022-08-24T08:22:41.311Z,9.30
2022-08-24T08:25:12.323Z,9.40
2022-08-24T08:30:13.847Z,9.35
2022-08-24T08:32:44.468Z,9.60
2022-08-24T08:35:15.315Z,9.18
2022-08-24T08:37:46.375Z,10.08
2022-08-24T08:40:27.237Z,10.38
2022-08-24T08:43:09.543Z,9.65
2022-08-24T08:46:04.447Z,10.70
2022-08-24T08:49:06.640Z,9.38
2022-08-24T08:51:45.911Z,9.40
2022-08-24T08:54:19.490Z,10.15
2022-08-24T08:57:17.454Z,9.93
2022-08-24T08:59:54.209Z,9.98
2022-08-24T09:02:33.597Z,9.15
2022-08-24T09:05:09.309Z,9.18
2022-08-24T09:08:11.347Z,9.33
2022-08-24T09:10:55.536Z,12.82
2022-08-24T09:13:56.434Z,9.93
2022-08-24T09:16:44.956Z,9.43
2022-08-24T09:19:34.660Z,10.43
2022-08-24T09:22:14.162Z,9.88
2022-08-24T09:24:56.854Z,9.73
2022-08-24T09:27:55.859Z,9.78
2022-08-24T09:30:29.901Z,10.35
2022-08-24T09:33:24.542Z,10.53
2022-08-24T09:36:10.176Z,10.38
2022-08-24T09:39:07.842Z,10.20
2022-08-24T09:42:02.824Z,11.70
2022-08-24T09:44:53.042Z,10.88
2022-08-24T09:47:43.287Z,11.95
2022-08-24T09:50:22.814Z,12.13
2022-08-24T09:53:31.260Z,12.03
2022-08-24T09:56:36.967Z,12.58
2022-08-24T09:59:29.875Z,11.95
2022-08-24T10:02:18.541Z,12.40
2022-08-24T10:05:09.890Z,11.95
2022-08-24T10:07:52.645Z,11.68
2022-08-24T10:10:28.867Z,11.28
2022-08-24T10:13:25.010Z,11.22
2022-08-24T10:16:03.414Z,10.82
2022-08-24T10:18:56.976Z,10.72
2022-08-24T10:21:42.470Z,10.38
2022-08-24T10:24:18.485Z,10.08
2022-08-24T10:26:54.931Z,10.93
2022-08-24T10:29:41.951Z,10.13
2022-08-24T10:32:21.613Z,10.08
2022-08-24T10:35:16.349Z,10.38
2022-08-24T10:38:00.327Z,10.58
2022-08-24T10:41:05.892Z,11.50
2022-08-24T10:43:39.761Z,11.28
2022-08-24T10:46:41.903Z,11.40
2022-08-24T10:49:18.182Z,10.85
2022-08-24T10:52:08.177Z,10.75
2022-08-24T10:54:39.276Z,9.70
2022-08-24T10:57:24.946Z,10.35
2022-08-24T11:00:12.432Z,11.12
2022-08-24T11:02:46.740Z,10.55
2022-08-24T11:05:20.319Z,9.48
2022-08-24T11:08:05.137Z,9.65
2022-08-24T11:10:39.164Z,9.95
2022-08-24T11:13:21.694Z,10.05
2022-08-24T11:15:57.870Z,9.40
2022-08-24T11:18:40.200Z,9.25
2022-08-24T11:21:16.743Z,9.18
2022-08-24T11:23:47.998Z,9.13
2022-08-24T11:26:22.986Z,9.40
2022-08-24T11:29:01.620Z,8.95
2022-08-24T11:31:37.834Z,9.35
2022-08-24T11:34:17.484Z,9.03
2022-08-24T11:36:48.060Z,8.23
2022-08-24T11:39:33.237Z,8.45
2022-08-24T11:42:12.838Z,8.73
2022-08-24T11:44:46.514Z,9.95
2022-08-24T11:47:34.678Z,8.40
2022-08-24T11:50:23.520Z,8.90
2022-08-24T11:53:12.399Z,9.18
2022-08-24T11:56:03.776Z,8.13
2022-08-24T11:58:41.374Z,9.33
2022-08-24T12:01:44.506Z,8.40
2022-08-24T12:04:42.349Z,8.68
2022-08-24T12:07:37.170Z,8.48
2022-08-24T12:10:24.260Z,8.23
2022-08-24T12:13:31.050Z,8.70
2022-08-24T12:16:13.560Z,8.78
2022-08-24T12:18:50.281Z,8.45
2022-08-24T12:21:23.731Z,8.48
2022-08-24T12:23:57.310Z,8.05
2022-08-24T12:26:40.026Z,7.97
2022-08-24T12:29:13.676Z,8.73
2022-08-24T12:31:47.301Z,8.05
2022-08-24T12:34:23.805Z,7.42
2022-08-24T12:37:00.045Z,7.97
2022-08-24T12:39:36.480Z,7.53
2022-08-24T12:42:11.101Z,8.18
2022-08-24T12:44:50.304Z,7.92
2022-08-24T12:47:30.538Z,8.10
2022-08-24T12:50:12.706Z,7.87
2022-08-24T12:53:04.254Z,7.92
2022-08-24T12:56:14.933Z,8.40
2022-08-24T12:58:57.648Z,7.90
2022-08-24T13:01:33.177Z,8.18
2022-08-24T13:04:31.431Z,8.40
2022-08-24T13:07:08.966Z,7.67
2022-08-24T13:09:54.305Z,7.78
2022-08-24T13:12:43.645Z,7.60
2022-08-24T13:15:29.706Z,7.25
2022-08-24T13:18:09.711Z,7.28
2022-08-24T13:20:46.870Z,6.90
2022-08-24T13:23:23.325Z,8.03
2022-08-24T13:26:03.195Z,7.22
2022-08-24T13:28:45.786Z,7.30
2022-08-24T13:31:28.484Z,7.50
2022-08-24T13:34:02.116Z,7.05
2022-08-24T13:36:38.414Z,7.37
2022-08-24T13:39:29.047Z,7.30
2022-08-24T13:42:21.540Z,7.33
2022-08-24T13:45:14.752Z,6.90
2022-08-24T13:48:03.679Z,6.95
2022-08-24T13:50:51.263Z,7.33
2022-08-24T13:53:47.535Z,8.05
2022-08-24T13:56:44.443Z,8.05
2022-08-24T13:59:22.498Z,7.90
2022-08-24T14:02:20.301Z,8.05
2022-08-24T14:05:14.972Z,9.10
2022-08-24T14:08:08.168Z,9.28
2022-08-24T14:10:47.559Z,8.98
2022-08-24T14:13:38.918Z,8.53
2022-08-24T14:16:49.762Z,8.35
2022-08-24T14:19:32.132Z,9.08
2022-08-24T14:22:14.533Z,8.85
2022-08-24T14:24:48.552Z,9.93
2022-08-24T14:27:44.831Z,9.73
2022-08-24T14:30:22.637Z,9.43
2022-08-24T14:33:04.946Z,9.53
2022-08-24T14:35:45.055Z,9.28
2022-08-24T14:38:28.592Z,9.83
2022-08-24T14:41:23.782Z,9.18
2022-08-24T14:44:20.429Z,8.85
2022-08-24T14:46:54.461Z,9.00
2022-08-24T14:49:46.794Z,9.10
2022-08-24T14:52:23.263Z,8.95
2022-08-24T14:55:05.891Z,7.87
2022-08-24T14:58:03.701Z,8.65
2022-08-24T15:00:53.910Z,8.78
2022-08-24T15:03:39.304Z,7.78
2022-08-24T15:06:32.944Z,7.47
2022-08-24T15:09:12.637Z,8.58
2022-08-24T15:11:43.850Z,8.48
2022-08-24T15:14:24.357Z,7.67
2022-08-24T15:17:05.729Z,8.28
2022-08-24T15:19:54.459Z,8.25
2022-08-24T15:22:41.020Z,8.35
2022-08-24T15:25:16.191Z,7.67
2022-08-24T15:27:51.326Z,8.08
2022-08-24T15:30:28.018Z,7.40
2022-08-24T15:33:19.389Z,7.53
2022-08-24T15:35:51.835Z,7.05
2022-08-24T15:38:25.280Z,7.40
2022-08-24T15:41:17.036Z,6.30
2022-08-24T15:43:53.379Z,6.47
2022-08-24T15:46:38.981Z,6.45
2022-08-24T15:49:20.470Z,6.17
2022-08-24T15:52:06.461Z,6.55
2022-08-24T15:54:40.013Z,6.35
2022-08-24T15:57:32.285Z,6.60
2022-08-24T16:00:19.759Z,7.42
2022-08-24T16:02:50.216Z,7.10
2022-08-24T16:05:26.326Z,6.50
2022-08-24T16:08:09.381Z,6.35
2022-08-24T16:10:54.618Z,6.50
2022-08-24T16:13:33.384Z,6.70
2022-08-24T16:16:07.317Z,6.22
2022-08-24T16:19:02.098Z,6.00
2022-08-24T16:21:41.148Z,6.60
2022-08-24T16:24:15.490Z,6.83
2022-08-24T16:26:51.715Z,6.37
2022-08-24T16:29:44.715Z,6.40
2022-08-24T16:32:43.341Z,6.33
2022-08-24T16:35:12.171Z,6.65
2022-08-24T16:37:43.227Z,6.70
2022-08-24T16:40:14.051Z,6.60
2022-08-24T16:42:44.668Z,6.25
2022-08-24T16:45:19.842Z,6.25
2022-08-24T16:47:50.785Z,6.20
2022-08-24T16:50:22.200Z,6.25
2022-08-24T16:52:54.285Z,5.90
2022-08-24T16:55:25.816Z,6.20
2022-08-24T16:57:57.055Z,6.00
2022-08-24T17:00:27.532Z,6.45
2022-08-24T17:02:58.086Z,6.40
2022-08-24T17:05:29.655Z,5.78
2022-08-24T17:08:02.080Z,7.08
2022-08-24T17:10:37.368Z,6.00
2022-08-24T17:13:04.794Z,6.65
2022-08-24T17:15:36.707Z,6.40
2022-08-24T17:18:10.172Z,6.62
2022-08-24T17:20:41.758Z,6.58
2022-08-24T17:23:12.757Z,6.33
2022-08-24T17:25:43.437Z,6.37
2022-08-24T17:28:17.118Z,6.65
2022-08-24T17:30:51.391Z,7.08
2022-08-24T17:33:22.510Z,6.62
2022-08-24T17:35:54.870Z,6.25
2022-08-24T17:38:25.462Z,6.58
2022-08-24T17:40:55.830Z,6.55
2022-08-24T17:43:26.335Z,6.53
2022-08-24T17:45:57.137Z,7.28
2022-08-24T17:48:28.417Z,6.20
2022-08-24T17:50:58.876Z,6.20
2022-08-24T17:53:29.347Z,6.50
2022-08-24T17:55:59.852Z,6.87
2022-08-24T17:58:32.099Z,6.10
2022-08-24T18:01:02.512Z,6.17
2022-08-24T18:03:32.966Z,6.50
2022-08-24T18:06:03.448Z,6.25
2022-08-24T18:08:34.403Z,6.30
2022-08-24T18:11:04.883Z,6.33
2022-08-24T18:13:35.249Z,6.40
2022-08-24T18:16:06.314Z,6.47
2022-08-24T18:18:36.859Z,6.47
2022-08-24T18:21:07.436Z,6.60
2022-08-24T18:23:43.642Z,6.70
2022-08-24T18:26:11.366Z,6.35
2022-08-24T18:28:42.306Z,6.55
2022-08-24T18:31:15.314Z,6.90
2022-08-24T18:33:45.895Z,6.47
2022-08-24T18:36:17.189Z,7.00
2022-08-24T18:38:47.617Z,7.00
2022-08-24T18:41:18.229Z,7.05
2022-08-24T18:43:48.741Z,7.40
2022-08-24T18:46:19.250Z,7.40
2022-08-24T18:48:49.827Z,7.45
2022-08-24T18:51:21.683Z,7.70
2022-08-24T18:53:54.682Z,8.68
2022-08-24T18:56:25.156Z,8.40
2022-08-24T18:58:58.008Z,8.65
2022-08-24T19:01:29.757Z,8.55
2022-08-24T19:04:06.013Z,9.43
2022-08-24T19:06:32.597Z,10.03
2022-08-24T19:09:03.135Z,9.98
2022-08-24T19:11:33.711Z,9.85
2022-08-24T19:14:04.547Z,10.10
2022-08-24T19:16:35.077Z,10.45
2022-08-24T19:19:06.436Z,10.30
2022-08-24T19:21:37.801Z,9.90
2022-08-24T19:24:08.930Z,10.58
2022-08-24T19:26:39.455Z,11.05
2022-08-24T19:29:09.926Z,10.70
2022-08-24T19:31:40.362Z,10.65
2022-08-24T19:34:11.523Z,10.32
2022-08-24T19:36:43.796Z,9.98
2022-08-24T19:39:14.253Z,10.55
2022-08-24T19:41:48.362Z,10.63
2022-08-24T19:44:39.019Z,10.38
2022-08-24T19:47:11.202Z,10.98
2022-08-24T19:49:41.601Z,10.28
2022-08-24T19:52:12.117Z,9.73
2022-08-24T19:54:45.426Z,10.50
2022-08-24T19:57:37.225Z,10.38
2022-08-24T20:00:19.430Z,9.78
2022-08-24T20:02:51.911Z,9.58
2022-08-24T20:05:24.970Z,9.90
2022-08-24T20:07:56.338Z,9.73
2022-08-24T20:10:27.326Z,9.25
2022-08-24T20:12:57.795Z,9.68
2022-08-24T20:15:28.688Z,9.43
2022-08-24T20:17:59.755Z,9.95
2022-08-24T20:20:32.322Z,10.55
2022-08-24T20:23:04.651Z,10.75
2022-08-24T20:25:36.998Z,10.88
2022-08-24T20:30:40.863Z,12.40
2022-08-24T20:33:17.339Z,11.33
2022-08-24T20:35:47.896Z,11.78
2022-08-24T20:38:21.248Z,11.33
2022-08-24T20:40:52.684Z,11.70
2022-08-24T20:43:23.144Z,11.00
2022-08-24T20:45:54.264Z,11.48
2022-08-24T20:48:30.308Z,11.15
2022-08-24T20:51:01.641Z,11.20
2022-08-24T20:53:32.072Z,12.23
2022-08-24T20:56:05.681Z,10.90
2022-08-24T20:58:36.304Z,11.57
2022-08-24T21:01:08.413Z,10.82
2022-08-24T21:03:39.697Z,11.20
2022-08-24T21:06:12.894Z,10.82
2022-08-24T21:08:46.008Z,10.55
2022-08-24T21:11:17.080Z,10.30
2022-08-24T21:13:47.625Z,10.93
2022-08-24T21:16:18.468Z,10.70
2022-08-24T21:18:49.252Z,10.45
2022-08-24T21:21:20.444Z,10.48
2022-08-24T21:23:50.921Z,11.22
2022-08-24T21:26:24.441Z,10.90
2022-08-24T21:28:57.264Z,13.22
2022-08-24T21:31:28.682Z,10.78
2022-08-24T21:34:17.182Z,10.08
2022-08-24T21:36:49.210Z,10.28
2022-08-24T21:39:19.777Z,10.00
2022-08-24T21:41:50.337Z,10.50
2022-08-24T21:44:20.788Z,9.95
2022-08-24T21:46:52.101Z,11.03
2022-08-24T21:49:22.814Z,10.90
2022-08-24T21:51:53.454Z,10.53
2022-08-24T21:54:24.008Z,11.48
2022-08-24T21:56:54.958Z,10.43
2022-08-24T21:59:25.443Z,10.55
2022-08-24T22:01:57.716Z,10.28
2022-08-24T22:04:28.627Z,9.65
2022-08-24T22:07:00.010Z,10.50
2022-08-24T22:09:30.567Z,9.68
2022-08-24T22:12:01.904Z,10.08
2022-08-24T22:14:32.358Z,9.80
2022-08-24T22:17:02.796Z,9.65
2022-08-24T22:19:33.341Z,10.08
2022-08-24T22:22:03.707Z,9.25
2022-08-24T22:24:34.689Z,9.65
2022-08-24T22:27:05.367Z,9.88
2022-08-24T22:29:35.784Z,9.35
2022-08-24T22:32:06.811Z,9.58
2022-08-24T22:34:37.733Z,10.05
2022-08-24T22:37:08.168Z,9.70
2022-08-24T22:39:38.525Z,9.68
2022-08-24T22:42:09.830Z,9.08
2022-08-24T22:44:40.295Z,9.35
2022-08-24T22:47:13.164Z,9.95
2022-08-24T22:49:45.896Z,9.08
2022-08-24T22:52:16.748Z,10.00
2022-08-24T22:54:47.351Z,9.73
2022-08-24T22:57:19.966Z,9.55
2022-08-24T22:59:52.809Z,9.70
2022-08-24T23:02:24.783Z,9.45
2022-08-24T23:04:55.304Z,9.33
2022-08-24T23:07:25.796Z,9.03
2022-08-24T23:09:56.289Z,8.98
2022-08-24T23:12:29.077Z,9.35
2022-08-24T23:14:59.677Z,9.53
2022-08-24T23:17:30.160Z,9.65
2022-08-24T23:20:00.906Z,9.25
2022-08-24T23:22:37.705Z,9.18
2022-08-24T23:25:11.492Z,9.35
2022-08-24T23:27:46.558Z,9.15
2022-08-24T23:30:16.117Z,9.93
2022-08-24T23:32:47.580Z,9.78
2022-08-24T23:35:18.413Z,9.10
2022-08-24T23:37:48.940Z,9.05
2022-08-24T23:40:20.202Z,9.10
2022-08-24T23:42:51.825Z,10.65
2022-08-24T23:45:28.331Z,8.93
2022-08-24T23:47:57.074Z,9.75
2022-08-24T23:50:27.122Z,9.33
2022-08-24T23:52:57.623Z,10.15
2022-08-24T23:55:28.378Z,9.80
2022-08-24T23:57:58.938Z,8.95
